Time;durP1;ratioP1;P1;durP2;ratioP2;P2;SDS_P1;SDS_P2;PMS_P1;PMS_P2;Temp;Humidity;BMP_temperature;BMP_pressure;BME280_temperature;BME280_humidity;BME280_pressure;Samples;Min_cycle;Max_cycle;Signal;HPM_P1;HPM_P2
2023/11/08 00:01:42;;;;;;;11.50;3.90;;;;;;;8.81;100.00;101025.46;104753;1263;66227;-53
2023/11/08 00:04:09;;;;;;;6.60;2.00;;;;;;;8.76;100.00;101014.46;104695;1267;71829;-54
2023/11/08 00:06:37;;;;;;;3.80;2.20;;;;;;;8.71;100.00;101004.55;106135;1258;3133647;-53
2023/11/08 00:09:05;;;;;;;3.50;1.80;;;;;;;8.65;100.00;100996.98;108591;1259;57046;-54
2023/11/08 00:11:32;;;;;;;6.00;2.00;;;;;;;8.59;100.00;100987.80;108699;1259;72347;-53
2023/11/08 00:13:59;;;;;;;6.50;1.80;;;;;;;8.54;100.00;100975.91;108550;1261;65686;-52
2023/11/08 00:16:27;;;;;;;3.00;1.80;;;;;;;8.50;100.00;100966.70;108546;1259;72847;-54
2023/11/08 00:18:54;;;;;;;4.50;2.30;;;;;;;8.46;100.00;100963.73;108541;1259;60512;-54
2023/11/08 00:21:23;;;;;;;5.00;1.60;;;;;;;8.43;100.00;100951.62;108628;1259;60272;-54
2023/11/08 00:23:51;;;;;;;5.20;1.90;;;;;;;8.43;100.00;100951.98;108656;1259;73152;-53
2023/11/08 00:26:18;;;;;;;5.30;2.60;;;;;;;8.43;100.00;100949.30;108759;1255;67867;-53
2023/11/08 00:28:46;;;;;;;3.10;1.70;;;;;;;8.43;100.00;100938.76;108857;1254;74575;-54
2023/11/08 00:31:15;;;;;;;8.00;2.00;;;;;;;8.40;100.00;100924.33;108759;1256;58917;-54
2023/11/08 00:33:42;;;;;;;3.20;1.80;;;;;;;8.36;100.00;100913.14;108846;1254;58803;-53
2023/11/08 00:36:10;;;;;;;8.40;3.50;;;;;;;8.30;100.00;100910.39;108703;1254;73014;-54
2023/11/08 00:38:38;;;;;;;3.90;2.20;;;;;;;8.23;100.00;100906.77;108782;1254;66230;-54
2023/11/08 00:41:06;;;;;;;4.70;2.50;;;;;;;8.16;100.00;100901.91;108787;1254;71908;-54
2023/11/08 00:45:03;;;;;;;5.40;2.40;;;;;;;8.03;100.00;100979.91;102286;1292;602500;-51
2023/11/08 00:47:32;;;;;;;3.50;1.90;;;;;;;7.98;100.00;100983.23;105903;1266;60531;-53
2023/11/08 00:49:59;;;;;;;4.80;2.00;;;;;;;7.97;100.00;100957.70;104513;1272;60333;-54
2023/11/08 00:52:27;;;;;;;4.40;2.10;;;;;;;7.95;100.00;100941.29;104738;1262;72296;-54
2023/11/08 00:54:55;;;;;;;5.40;2.00;;;;;;;7.94;100.00;100933.97;104715;1264;67039;-52
2023/11/08 00:57:22;;;;;;;6.50;2.10;;;;;;;7.90;100.00;100918.85;104725;1263;71491;-52
2023/11/08 00:59:50;;;;;;;8.10;2.00;;;;;;;7.87;100.00;100907.46;102729;1264;3136629;-53
2023/11/08 01:04:22;;;;;;;6.70;2.90;;;;;;;7.83;100.00;100961.52;102189;1292;600900;-52
2023/11/08 01:06:50;;;;;;;6.70;2.70;;;;;;;7.80;100.00;100973.02;104596;1266;60058;-54
2023/11/08 01:09:20;;;;;;;6.30;2.50;;;;;;;7.77;100.00;100947.52;104438;1270;60518;-50
2023/11/08 01:11:49;;;;;;;6.10;3.70;;;;;;;7.75;100.00;100928.98;104532;1266;71152;-54
2023/11/08 01:14:16;;;;;;;8.10;3.40;;;;;;;7.71;100.00;100909.21;108055;1266;66354;-53
2023/11/08 01:16:45;;;;;;;9.40;3.40;;;;;;;7.68;100.00;100899.61;108113;1266;71790;-52
2023/11/08 01:19:13;;;;;;;7.00;3.70;;;;;;;7.64;100.00;100884.69;105875;1263;64052;-53
2023/11/08 01:21:45;;;;;;;5.50;2.90;;;;;;;7.61;100.00;100874.37;108303;1263;58458;-52
2023/11/08 01:24:13;;;;;;;6.60;3.30;;;;;;;7.59;100.00;100869.41;108347;1267;71062;-51
2023/11/08 01:26:41;;;;;;;6.10;2.70;;;;;;;7.55;100.00;100861.81;108338;1264;67474;-52
2023/11/08 01:29:08;;;;;;;4.90;2.80;;;;;;;7.52;100.00;100850.42;108287;1263;71429;-51
2023/11/08 01:31:36;;;;;;;5.10;2.30;;;;;;;7.44;100.00;100845.04;108286;1263;60495;-52
2023/11/08 01:34:03;;;;;;;5.80;2.70;;;;;;;7.38;100.00;100839.26;108059;1262;58809;-55
2023/11/08 01:36:31;;;;;;;4.30;2.30;;;;;;;7.35;100.00;100830.02;104673;1264;72692;-53
2023/11/08 01:38:58;;;;;;;6.10;2.30;;;;;;;7.34;100.00;100833.43;107886;1265;65944;-55
2023/11/08 01:41:26;;;;;;;6.40;2.40;;;;;;;7.34;100.00;100824.50;104591;1265;72725;-54
2023/11/08 01:43:53;;;;;;;5.80;3.10;;;;;;;7.34;100.00;100814.14;104754;1264;60634;-54
2023/11/08 01:46:25;;;;;;;6.80;2.90;;;;;;;7.34;100.00;100812.89;104482;1264;59810;-54
2023/11/08 01:48:52;;;;;;;3.60;2.80;;;;;;;7.33;100.00;100819.16;104575;1264;71905;-54
2023/11/08 01:51:20;;;;;;;4.80;2.60;;;;;;;7.32;100.00;100818.80;104450;1264;67097;-54
2023/11/08 01:53:48;;;;;;;6.70;3.90;;;;;;;7.30;100.00;100806.55;108328;1263;72621;-55
2023/11/08 01:56:16;;;;;;;5.00;3.10;;;;;;;7.29;100.00;100805.50;108266;1264;59412;-55
2023/11/08 01:58:44;;;;;;;4.80;2.80;;;;;;;7.28;100.00;100807.13;106402;1262;59840;-53
2023/11/08 02:01:12;;;;;;;5.60;3.00;;;;;;;7.27;100.00;100805.00;105067;1267;72789;-52
2023/11/08 02:03:40;;;;;;;4.20;2.30;;;;;;;7.22;100.00;100794.37;104491;1263;67842;-53
2023/11/08 02:06:10;;;;;;;7.10;2.40;;;;;;;7.16;100.00;100781.80;104913;1264;71429;-54
2023/11/08 02:08:40;;;;;;;4.10;2.10;;;;;;;7.15;100.00;100770.76;107287;1256;61754;-51
2023/11/08 02:11:08;;;;;;;5.80;2.00;;;;;;;7.17;100.00;100763.23;105100;1257;60158;-53
2023/11/08 02:13:36;;;;;;;5.80;2.60;;;;;;;7.19;100.00;100761.77;105077;1262;71805;-52
2023/11/08 02:16:04;;;;;;;5.70;2.20;;;;;;;7.20;100.00;100762.10;105111;1264;67136;-53
2023/11/08 02:18:32;;;;;;;4.80;2.50;;;;;;;7.20;100.00;100764.61;108185;1257;72719;-54
2023/11/08 02:21:00;;;;;;;4.00;2.30;;;;;;;7.21;100.00;100766.55;105071;1264;60518;-51
2023/11/08 02:23:28;;;;;;;5.10;2.00;;;;;;;7.23;100.00;100763.83;108637;1256;60613;-51
2023/11/08 02:25:55;;;;;;;7.50;3.30;;;;;;;7.26;100.00;100760.02;106953;1257;71140;-53
2023/11/08 02:28:23;;;;;;;5.80;2.80;;;;;;;7.29;100.00;100761.77;105088;1259;65548;-52
2023/11/08 02:30:54;;;;;;;9.40;3.40;;;;;;;7.31;100.00;100765.48;105015;1259;72136;-54
2023/11/08 02:33:23;;;;;;;11.10;3.10;;;;;;;7.33;100.00;100764.88;105161;1256;59578;-54
2023/11/08 02:35:51;;;;;;;11.10;3.10;;;;;;;7.35;100.00;100766.98;106168;1262;60054;-54
2023/11/08 02:38:19;;;;;;;9.20;2.80;;;;;;;7.37;100.00;100760.71;105064;1257;71803;-55
2023/11/08 02:40:46;;;;;;;4.90;3.30;;;;;;;7.37;100.00;100756.42;105009;1258;65349;-50
2023/11/08 02:43:14;;;;;;;4.70;3.00;;;;;;;7.36;100.00;100755.36;105093;1259;72730;-53
2023/11/08 02:45:41;;;;;;;5.70;2.90;;;;;;;7.34;100.00;100746.29;105291;1262;61816;-54
2023/11/08 02:48:09;;;;;;;4.30;2.50;;;;;;;7.31;100.00;100744.58;105423;1256;60198;-55
2023/11/08 02:50:38;;;;;;;4.00;1.80;;;;;;;7.27;100.00;100748.76;105240;1256;71857;-52
2023/11/08 02:53:05;;;;;;;5.00;1.90;;;;;;;7.26;100.00;100747.35;108584;1258;65519;-55
2023/11/08 02:55:34;;;;;;;4.60;2.40;;;;;;;7.27;100.00;100742.86;105520;1262;72692;-53
2023/11/08 02:58:02;;;;;;;5.60;2.70;;;;;;;7.28;100.00;100744.83;108299;1256;60468;-54
2023/11/08 03:00:30;;;;;;;3.10;1.80;;;;;;;7.21;100.00;100731.19;108551;1256;58733;-55
2023/11/08 03:02:58;;;;;;;6.90;2.90;;;;;;;7.18;100.00;100725.18;106168;1259;75517;-55
2023/11/08 03:05:26;;;;;;;3.80;2.40;;;;;;;7.18;100.00;100716.08;105142;1261;68021;-54
2023/11/08 03:07:54;;;;;;;2.40;1.70;;;;;;;7.18;100.00;100713.40;105120;1262;72057;-55
2023/11/08 03:10:22;;;;;;;4.80;2.70;;;;;;;7.20;100.00;100711.94;105324;1257;61804;-55
2023/11/08 03:12:50;;;;;;;5.60;2.70;;;;;;;7.22;100.00;100704.92;104817;1257;60031;-55
2023/11/08 03:15:21;;;;;;;5.70;2.30;;;;;;;7.24;100.00;100708.98;108037;1257;73180;-55
2023/11/08 03:17:53;;;;;;;6.10;3.00;;;;;;;7.27;100.00;100711.80;105193;1262;68040;-55
2023/11/08 03:20:21;;;;;;;5.90;2.80;;;;;;;7.31;100.00;100707.27;105124;1256;71762;-54
2023/11/08 03:22:48;;;;;;;8.20;3.10;;;;;;;7.35;100.00;100700.56;105206;1258;60162;-50
2023/11/08 03:25:16;;;;;;;6.60;2.90;;;;;;;7.38;100.00;100700.70;105197;1257;60022;-53
2023/11/08 03:27:46;;;;;;;6.60;3.40;;;;;;;7.40;100.00;100694.05;106347;1256;73174;-53
2023/11/08 03:30:15;;;;;;;5.60;2.60;;;;;;;7.41;100.00;100695.42;105126;1257;67524;-54
2023/11/08 03:32:43;;;;;;;7.10;3.00;;;;;;;7.42;100.00;100694.16;105512;1260;72772;-52
2023/11/08 03:35:12;;;;;;;5.00;1.90;;;;;;;7.42;100.00;100688.63;108563;1259;61301;-54
2023/11/08 03:37:40;;;;;;;5.30;2.10;;;;;;;7.41;100.00;100684.73;105294;1257;60127;-54
2023/11/08 03:40:15;;;;;;;10.10;3.00;;;;;;;7.39;100.00;100683.89;107904;1258;72275;-54
2023/11/08 03:42:44;;;;;;;4.00;2.20;;;;;;;7.39;100.00;100679.80;105029;1258;68765;-53
2023/11/08 03:45:12;;;;;;;5.30;2.50;;;;;;;7.36;100.00;100675.91;108692;1256;71572;-55
2023/11/08 03:47:40;;;;;;;5.40;2.60;;;;;;;7.37;100.00;100678.73;108211;1256;60448;-52
2023/11/08 03:50:08;;;;;;;4.30;2.80;;;;;;;7.39;100.00;100684.42;108752;1256;60058;-55
2023/11/08 03:52:36;;;;;;;5.60;3.00;;;;;;;7.40;100.00;100686.70;108726;1256;73081;-55
2023/11/08 03:55:04;;;;;;;3.30;2.30;;;;;;;7.41;100.00;100683.65;108706;1256;67034;-55
2023/11/08 03:57:32;;;;;;;4.70;2.50;;;;;;;7.43;100.00;100679.86;108711;1257;71474;-55
2023/11/08 03:59:59;;;;;;;6.50;2.90;;;;;;;7.46;100.00;100677.85;108779;1259;62090;-55
2023/11/08 04:02:27;;;;;;;6.00;3.30;;;;;;;7.49;100.00;100679.02;108723;1257;59360;-55
2023/11/08 04:04:54;;;;;;;8.50;4.90;;;;;;;7.52;100.00;100680.38;108720;1259;73513;-55
2023/11/08 04:07:22;;;;;;;9.30;4.70;;;;;;;7.54;100.00;100674.98;108811;1258;67035;-55
2023/11/08 04:09:50;;;;;;;5.10;2.70;;;;;;;7.56;100.00;100670.49;108719;1260;72694;-55
2023/11/08 04:12:17;;;;;;;5.00;2.90;;;;;;;7.58;100.00;100668.30;108712;1257;61646;-55
2023/11/08 04:14:45;;;;;;;6.80;2.70;;;;;;;7.60;100.00;100660.93;108725;1257;60121;-55
2023/11/08 04:17:15;;;;;;;5.30;3.90;;;;;;;7.63;100.00;100657.31;108670;1258;73129;-53
2023/11/08 04:19:45;;;;;;;11.60;4.50;;;;;;;7.65;100.00;100655.48;108701;1259;66833;-53
2023/11/08 04:22:14;;;;;;;9.10;4.40;;;;;;;7.67;100.00;100659.70;108714;1259;72864;-55
2023/11/08 04:24:42;;;;;;;8.70;4.50;;;;;;;7.69;100.00;100673.06;108667;1263;60626;-55
2023/11/08 04:27:10;;;;;;;8.20;4.50;;;;;;;7.71;100.00;100676.59;108700;1257;58817;-55
2023/11/08 04:29:38;;;;;;;7.30;4.20;;;;;;;7.73;100.00;100672.63;108746;1257;71842;-55
2023/11/08 04:32:06;;;;;;;6.10;4.00;;;;;;;7.75;100.00;100666.11;108646;1260;65734;-55
2023/11/08 04:34:33;;;;;;;13.10;4.90;;;;;;;7.79;100.00;100661.95;108745;1259;71984;-55
2023/11/08 04:37:05;;;;;;;10.00;4.00;;;;;;;7.84;100.00;100663.80;108626;1257;61017;-55
2023/11/08 04:39:32;;;;;;;9.40;4.70;;;;;;;7.88;100.00;100663.17;108696;1257;58848;-55
2023/11/08 04:42:00;;;;;;;7.60;4.00;;;;;;;7.93;100.00;100665.70;108743;1258;73065;-53
2023/11/08 04:44:28;;;;;;;4.80;4.20;;;;;;;7.98;100.00;100669.17;107626;1260;65659;-53
2023/11/08 04:46:55;;;;;;;9.40;5.00;;;;;;;8.03;100.00;100671.56;106830;1260;71935;-53
2023/11/08 04:49:23;;;;;;;11.70;4.70;;;;;;;8.07;100.00;100664.86;104908;1264;61820;-53
2023/11/08 04:51:51;;;;;;;8.50;4.40;;;;;;;8.12;100.00;100658.85;106340;1258;60120;-53
2023/11/08 04:54:18;;;;;;;9.50;5.20;;;;;;;8.15;100.00;100660.04;108605;1260;72211;-54
2023/11/08 04:56:45;;;;;;;11.20;6.50;;;;;;;8.18;100.00;100656.70;107535;1260;67786;-53
2023/11/08 04:59:14;;;;;;;6.70;5.30;;;;;;;8.23;100.00;100659.13;104241;1260;72759;-53
2023/11/08 05:01:43;;;;;;;8.70;5.00;;;;;;;8.26;100.00;100662.44;104591;1260;61153;-54
2023/11/08 05:04:11;;;;;;;9.00;5.90;;;;;;;8.27;100.00;100674.91;104848;1257;61364;-54
2023/11/08 05:06:38;;;;;;;9.30;5.90;;;;;;;8.29;100.00;100670.23;108517;1256;73088;-55
2023/11/08 05:09:06;;;;;;;9.90;5.30;;;;;;;8.28;100.00;100660.59;105415;1256;67278;-54
2023/11/08 05:11:33;;;;;;;8.60;6.50;;;;;;;8.29;100.00;100661.11;105227;1258;71533;-53
2023/11/08 05:14:03;;;;;;;10.10;6.40;;;;;;;8.29;100.00;100680.95;105390;1256;60534;-52
2023/11/08 05:16:31;;;;;;;8.20;4.20;;;;;;;8.29;100.00;100676.66;106151;1255;60387;-53
2023/11/08 05:19:05;;;;;;;7.20;4.80;;;;;;;8.29;100.00;100664.15;108973;1253;72729;-55
2023/11/08 05:21:33;;;;;;;8.50;3.80;;;;;;;8.30;100.00;100658.41;106117;1253;67376;-54
2023/11/08 05:24:00;;;;;;;8.00;5.40;;;;;;;8.31;100.00;100649.29;105277;1254;72046;-54
2023/11/08 05:26:27;;;;;;;7.80;4.40;;;;;;;8.33;100.00;100644.78;105299;1257;62041;-53
2023/11/08 05:28:55;;;;;;;12.00;5.00;;;;;;;8.34;100.00;100640.42;105068;1253;59225;-52
2023/11/08 05:31:23;;;;;;;4.50;3.70;;;;;;;8.36;100.00;100636.28;105036;1258;74461;-52
2023/11/08 05:33:50;;;;;;;9.50;4.20;;;;;;;8.39;100.00;100640.34;105057;1253;65542;-54
2023/11/08 05:36:18;;;;;;;8.60;4.50;;;;;;;8.41;100.00;100647.09;105213;1257;71456;-55
2023/11/08 05:38:47;;;;;;;7.60;4.90;;;;;;;8.43;100.00;100640.77;105423;1258;60671;-54
2023/11/08 05:41:18;;;;;;;15.60;5.20;;;;;;;8.44;100.00;100636.97;108902;1255;60019;-55
2023/11/08 05:43:45;;;;;;;9.20;4.70;;;;;;;8.47;100.00;100652.65;107443;1256;74160;-52
2023/11/08 05:46:13;;;;;;;9.90;4.90;;;;;;;8.49;100.00;100648.13;104433;1254;67292;-52
2023/11/08 05:48:41;;;;;;;9.00;4.90;;;;;;;8.53;100.00;100651.95;108972;1254;71425;-55
2023/11/08 05:51:08;;;;;;;7.80;4.60;;;;;;;8.56;100.00;100659.40;108939;1253;61718;-54
2023/11/08 05:53:37;;;;;;;9.90;5.50;;;;;;;8.58;100.00;100666.50;108889;1253;60014;-55
2023/11/08 05:56:06;;;;;;;16.00;5.90;;;;;;;8.61;100.00;100670.70;109012;1254;74024;-55
2023/11/08 05:58:35;;;;;;;6.40;4.10;;;;;;;8.64;100.00;100672.06;108024;1253;66201;-54
2023/11/08 06:01:04;;;;;;;7.30;4.90;;;;;;;8.64;100.00;100667.23;106249;1256;71429;-53
2023/11/08 06:03:32;;;;;;;9.90;5.10;;;;;;;8.63;100.00;100668.52;105401;1253;61791;-53
2023/11/08 06:05:59;;;;;;;7.10;4.40;;;;;;;8.63;100.00;100669.41;105384;1253;60540;-53
2023/11/08 06:08:27;;;;;;;11.20;4.70;;;;;;;8.62;100.00;100663.52;106478;1254;75922;-54
2023/11/08 06:10:54;;;;;;;8.40;5.40;;;;;;;8.63;100.00;100653.48;105301;1258;65658;-54
2023/11/08 06:13:22;;;;;;;7.30;4.00;;;;;;;8.64;100.00;100650.95;105430;1254;72724;-54
2023/11/08 06:15:49;;;;;;;5.50;4.10;;;;;;;8.66;100.00;100654.67;107434;1256;60747;-53
2023/11/08 06:18:20;;;;;;;7.90;4.90;;;;;;;8.66;100.00;100649.12;105922;1257;60387;-53
2023/11/08 06:20:48;;;;;;;5.90;4.70;;;;;;;8.66;100.00;100641.43;105173;1254;72886;-54
2023/11/08 06:23:15;;;;;;;9.50;5.10;;;;;;;8.65;100.00;100632.84;104785;1253;66936;-53
2023/11/08 06:25:43;;;;;;;7.70;4.30;;;;;;;8.66;100.00;100628.54;104997;1254;71457;-54
2023/11/08 06:28:11;;;;;;;6.70;4.90;;;;;;;8.66;100.00;100626.39;104860;1260;60519;-54
2023/11/08 06:30:38;;;;;;;9.20;4.60;;;;;;;8.67;100.00;100617.40;104724;1253;60646;-54
2023/11/08 06:33:07;;;;;;;9.00;4.50;;;;;;;8.68;100.00;100608.77;104976;1253;73525;-53
2023/11/08 06:35:35;;;;;;;6.60;4.50;;;;;;;8.71;100.00;100602.45;105006;1256;65588;-50
2023/11/08 06:38:03;;;;;;;8.40;5.90;;;;;;;8.73;100.00;100596.86;104736;1257;71458;-53
2023/11/08 06:40:30;;;;;;;9.90;6.00;;;;;;;8.75;100.00;100592.52;105153;1254;60759;-53
2023/11/08 06:42:57;;;;;;;9.80;6.80;;;;;;;8.77;100.00;100584.91;104998;1254;60428;-54
2023/11/08 06:45:25;;;;;;;14.10;7.90;;;;;;;8.77;100.00;100585.45;104984;1258;72661;-50
2023/11/08 06:47:52;;;;;;;10.30;8.30;;;;;;;8.77;100.00;100582.95;108915;1253;65860;-55
2023/11/08 06:50:20;;;;;;;7.50;6.80;;;;;;;8.77;100.00;100576.33;108880;1253;72963;-53
2023/11/08 06:52:47;;;;;;;7.20;5.80;;;;;;;8.76;100.00;100571.90;108977;1256;61704;-53
2023/11/08 06:55:16;;;;;;;9.60;6.00;;;;;;;8.76;100.00;100563.88;108825;1255;62430;-53
2023/11/08 06:58:01;;;;;;;9.20;6.30;;;;;;;8.77;100.00;100562.56;108887;1254;73667;-53
2023/11/08 07:00:29;;;;;;;16.00;6.00;;;;;;;8.77;100.00;100559.69;108981;1253;65665;-53
2023/11/08 07:02:56;;;;;;;8.00;5.40;;;;;;;8.78;100.00;100559.30;109010;1253;71381;-53
2023/11/08 07:05:24;;;;;;;6.00;4.50;;;;;;;8.80;100.00;100560.69;109011;1253;60486;-53
2023/11/08 07:08:02;;;;;;;5.10;4.30;;;;;;;8.80;100.00;100562.48;108917;1253;59199;-53
2023/11/08 07:10:30;;;;;;;7.60;4.80;;;;;;;8.80;100.00;100563.54;108873;1254;73832;-52
2023/11/08 07:12:57;;;;;;;13.40;5.20;;;;;;;8.82;100.00;100562.98;108926;1253;65912;-53
2023/11/08 07:15:26;;;;;;;10.40;5.70;;;;;;;8.82;100.00;100564.20;108979;1253;71490;-53
2023/11/08 07:17:54;;;;;;;8.30;5.20;;;;;;;8.84;100.00;100566.84;108949;1255;60771;-53
2023/11/08 07:20:21;;;;;;;6.80;3.90;;;;;;;8.85;100.00;100566.61;108928;1254;59628;-53
2023/11/08 07:22:48;;;;;;;9.60;4.70;;;;;;;8.86;100.00;100566.23;108900;1253;73943;-53
2023/11/08 07:25:16;;;;;;;6.70;4.30;;;;;;;8.87;100.00;100565.48;108921;1253;65780;-53
2023/11/08 07:27:43;;;;;;;10.10;5.50;;;;;;;8.90;100.00;100559.88;108893;1254;72094;-53
2023/11/08 07:30:11;;;;;;;7.40;5.00;;;;;;;8.91;100.00;100553.39;109031;1253;61750;-53
2023/11/08 07:32:38;;;;;;;10.40;5.80;;;;;;;8.91;100.00;100548.20;108945;1256;59849;-53
2023/11/08 07:35:07;;;;;;;6.50;4.20;;;;;;;8.91;100.00;100535.66;108796;1256;73986;-53
2023/11/08 07:37:35;;;;;;;8.70;5.20;;;;;;;8.92;100.00;100532.25;106564;1253;68867;-51
2023/11/08 07:40:06;;;;;;;10.60;5.10;;;;;;;8.94;100.00;100525.36;109007;1253;71439;-53
2023/11/08 07:42:33;;;;;;;10.90;5.60;;;;;;;8.96;100.00;100517.08;109051;1253;61113;-54
2023/11/08 07:45:01;;;;;;;9.00;5.80;;;;;;;8.96;100.00;100508.11;106171;1253;60355;-53
2023/11/08 07:47:28;;;;;;;9.60;6.30;;;;;;;8.96;100.00;100504.89;105481;1258;71821;-52
2023/11/08 07:49:56;;;;;;;13.00;7.20;;;;;;;8.95;100.00;100499.19;105502;1253;65842;-52
2023/11/08 07:52:25;;;;;;;10.30;5.30;;;;;;;8.96;100.00;100490.59;105471;1253;71612;-53
2023/11/08 07:54:52;;;;;;;5.90;4.20;;;;;;;8.94;100.00;100486.86;106338;1258;60469;-52
2023/11/08 07:57:20;;;;;;;9.70;3.90;;;;;;;8.93;100.00;100477.95;105413;1254;60566;-53
2023/11/08 07:59:49;;;;;;;4.00;3.20;;;;;;;8.93;100.00;100473.50;105451;1258;74396;-53
2023/11/08 08:02:16;;;;;;;3.90;3.30;;;;;;;8.92;100.00;100470.66;106023;1253;65633;-52
2023/11/08 08:04:45;;;;;;;4.60;2.80;;;;;;;8.93;100.00;100469.92;105399;1259;70483;-49
2023/11/08 08:07:12;;;;;;;4.30;3.30;;;;;;;8.93;100.00;100462.23;108052;1253;61651;-52
2023/11/08 08:09:40;;;;;;;5.90;3.20;;;;;;;8.94;100.00;100459.14;105326;1253;60427;-54
2023/11/08 08:12:07;;;;;;;5.10;2.40;;;;;;;8.93;100.00;100462.91;105458;1253;72707;-52
2023/11/08 08:14:35;;;;;;;5.00;2.50;;;;;;;8.93;100.00;100466.35;104904;1253;66894;-52
2023/11/08 08:17:03;;;;;;;5.70;3.10;;;;;;;8.92;100.00;100470.32;104852;1256;73572;-53
2023/11/08 08:19:31;;;;;;;8.00;3.20;;;;;;;8.92;100.00;100470.67;104966;1253;61774;-53
2023/11/08 08:22:01;;;;;;;6.20;2.50;;;;;;;8.93;100.00;100462.41;105522;1258;60352;-52
2023/11/08 08:24:28;;;;;;;4.70;3.00;;;;;;;8.93;100.00;100456.85;105476;1254;74845;-52
2023/11/08 08:26:56;;;;;;;2.70;1.90;;;;;;;8.93;100.00;100451.30;106531;1253;66745;-53
2023/11/08 08:29:26;;;;;;;3.20;2.50;;;;;;;8.93;100.00;100449.54;105208;1254;72702;-53
2023/11/08 08:31:53;;;;;;;8.40;2.80;;;;;;;8.93;100.00;100458.66;105750;1258;61832;-54
2023/11/08 08:34:20;;;;;;;5.50;3.40;;;;;;;8.93;100.00;100458.09;105266;1254;60465;-54
2023/11/08 08:36:57;;;;;;;4.00;3.60;;;;;;;8.95;100.00;100453.90;105295;1254;73963;-53
2023/11/08 08:39:27;;;;;;;6.30;4.30;;;;;;;8.97;100.00;100444.20;105242;1253;68430;-54
2023/11/08 08:41:56;;;;;;;5.70;3.20;;;;;;;8.98;100.00;100441.46;105953;1253;73176;-53
2023/11/08 08:44:24;;;;;;;3.90;3.00;;;;;;;8.99;100.00;100435.36;106907;1256;61875;-53
2023/11/08 08:46:51;;;;;;;6.10;4.80;;;;;;;9.00;100.00;100424.77;105536;1258;61499;-53
2023/11/08 08:49:20;;;;;;;7.10;6.40;;;;;;;9.01;100.00;100411.14;106413;1254;72680;-53
2023/11/08 08:51:49;;;;;;;8.20;6.50;;;;;;;8.98;100.00;100401.38;105548;1258;66346;-53
2023/11/08 08:54:20;;;;;;;7.10;6.00;;;;;;;8.96;100.00;100400.02;105437;1253;72957;-53
2023/11/08 08:56:49;;;;;;;8.70;6.50;;;;;;;8.93;100.00;100392.78;105488;1253;61856;-52
2023/11/08 08:59:16;;;;;;;9.00;5.30;;;;;;;8.90;100.00;100379.61;105479;1253;60470;-50
2023/11/08 09:01:44;;;;;;;11.20;6.00;;;;;;;8.86;100.00;100370.63;105255;1254;73949;-53
2023/11/08 09:04:11;;;;;;;5.70;4.20;;;;;;;8.78;100.00;100371.23;105501;1258;67779;-53
2023/11/08 09:06:39;;;;;;;8.10;5.50;;;;;;;8.75;100.00;100357.73;108903;1253;72730;-53
2023/11/08 09:09:12;;;;;;;7.60;4.40;;;;;;;8.74;100.00;100349.89;104760;1253;62651;-50
2023/11/08 09:11:40;;;;;;;8.90;4.00;;;;;;;8.72;100.00;100350.13;107364;1256;59212;-53
2023/11/08 09:14:08;;;;;;;5.40;4.10;;;;;;;8.67;100.00;100347.58;105642;1253;73106;-52
2023/11/08 09:16:37;;;;;;;7.40;4.60;;;;;;;8.64;100.00;100342.33;105331;1254;67418;-53
2023/11/08 09:19:07;;;;;;;5.90;4.80;;;;;;;8.60;100.00;100336.20;108953;1253;73125;-54
2023/11/08 09:21:35;;;;;;;6.50;4.30;;;;;;;8.54;100.00;100338.51;106093;1257;62788;-54
2023/11/08 09:24:06;;;;;;;5.40;4.90;;;;;;;8.49;100.00;100332.77;105286;1254;61303;-53
2023/11/08 09:26:34;;;;;;;7.50;6.30;;;;;;;8.45;100.00;100324.66;107693;1257;72685;-54
2023/11/08 09:29:02;;;;;;;6.30;5.50;;;;;;;8.43;100.00;100320.79;105481;1256;66576;-54
2023/11/08 09:31:29;;;;;;;5.70;5.00;;;;;;;8.40;100.00;100316.61;105278;1253;72809;-54
2023/11/08 09:33:57;;;;;;;9.40;5.70;;;;;;;8.37;100.00;100311.14;105250;1258;62659;-53
2023/11/08 09:36:25;;;;;;;7.10;6.10;;;;;;;8.35;100.00;100308.51;105192;1258;60413;-54
2023/11/08 09:38:53;;;;;;;6.70;5.50;;;;;;;8.35;100.00;100304.74;106996;1256;73903;-55
2023/11/08 09:41:22;;;;;;;7.10;5.40;;;;;;;8.36;100.00;100305.43;106092;1256;65867;-55
2023/11/08 09:43:51;;;;;;;8.90;7.40;;;;;;;8.38;100.00;100300.02;105838;1254;72844;-51
2023/11/08 09:46:19;;;;;;;7.70;6.60;;;;;;;8.37;100.00;100298.79;108947;1253;61771;-54
2023/11/08 09:48:48;;;;;;;10.70;6.60;;;;;;;8.38;100.00;100295.39;108908;1253;58854;-54
2023/11/08 09:51:16;;;;;;;8.10;6.30;;;;;;;8.40;100.00;100294.61;108909;1253;72276;-54
2023/11/08 09:53:45;;;;;;;11.20;7.10;;;;;;;8.43;100.00;100297.34;109094;1253;65691;-54
2023/11/08 09:56:13;;;;;;;9.20;6.80;;;;;;;8.45;100.00;100299.62;109017;1259;73774;-53
2023/11/08 09:58:43;;;;;;;9.20;6.60;;;;;;;8.47;100.00;100298.48;109042;1257;61785;-54
2023/11/08 10:01:18;;;;;;;10.10;6.90;;;;;;;8.48;100.00;100300.08;108974;1253;59378;-54
2023/11/08 10:03:45;;;;;;;10.10;6.80;;;;;;;8.47;100.00;100300.99;109011;1253;73196;-53
2023/11/08 10:06:14;;;;;;;11.60;7.20;;;;;;;8.48;100.00;100300.25;109274;1253;67040;-54
2023/11/08 10:08:42;;;;;;;11.70;7.50;;;;;;;8.51;100.00;100293.73;108965;1256;71452;-54
2023/11/08 10:11:10;;;;;;;14.50;7.20;;;;;;;8.54;100.00;100287.70;109097;1253;60480;-53
2023/11/08 10:13:52;;;;;;;10.10;7.90;;;;;;;8.58;100.00;100287.75;108843;1257;60067;-54
2023/11/08 10:16:21;;;;;;;12.60;8.40;;;;;;;8.62;100.00;100284.41;109128;1253;73100;-54
2023/11/08 10:18:57;;;;;;;11.70;8.20;;;;;;;8.64;100.00;100284.36;109085;1257;69266;-54
2023/11/08 10:21:50;;;;;;;8.80;7.90;;;;;;;8.69;100.00;100294.92;109004;1256;72780;-54
2023/11/08 10:24:18;;;;;;;12.70;7.60;;;;;;;8.72;100.00;100282.84;108968;1253;60020;-54
2023/11/08 10:26:46;;;;;;;11.50;7.00;;;;;;;8.76;100.00;100280.57;109083;1253;60092;-54
2023/11/08 10:29:14;;;;;;;10.10;8.60;;;;;;;8.78;100.00;100275.84;109051;1252;73882;-54
2023/11/08 10:31:42;;;;;;;9.70;7.60;;;;;;;8.80;100.00;100267.01;109050;1253;67645;-54
2023/11/08 10:34:14;;;;;;;9.40;6.80;;;;;;;8.82;100.00;100267.84;109021;1258;71282;-54
2023/11/08 10:36:41;;;;;;;10.10;6.10;;;;;;;8.84;100.00;100266.36;107352;1253;61890;-53
2023/11/08 10:39:13;;;;;;;8.90;6.40;;;;;;;8.86;100.00;100263.23;109082;1253;58822;-54
2023/11/08 10:41:45;;;;;;;9.60;7.30;;;;;;;8.89;100.00;100256.16;106489;1259;73402;-53
2023/11/08 10:44:14;;;;;;;9.70;6.90;;;;;;;8.92;100.00;100257.86;105323;1253;66936;-53
2023/11/08 10:46:41;;;;;;;17.30;9.00;;;;;;;8.92;100.00;100252.83;107711;1257;72947;-52
2023/11/08 10:49:10;;;;;;;11.80;8.30;;;;;;;8.92;100.00;100244.94;105351;1254;60869;-52
2023/11/08 10:51:40;;;;;;;14.00;9.20;;;;;;;8.93;100.00;100246.36;105374;1258;60655;-54
2023/11/08 10:54:08;;;;;;;13.00;11.20;;;;;;;8.93;100.00;100239.53;106664;1258;72673;-55
2023/11/08 10:56:37;;;;;;;11.90;10.10;;;;;;;8.94;100.00;100228.08;108123;1253;66021;-55
2023/11/08 10:59:09;;;;;;;18.70;11.30;;;;;;;8.94;100.00;100220.90;105358;1259;73077;-53
2023/11/08 11:01:38;;;;;;;16.70;10.60;;;;;;;8.93;100.00;100214.67;108733;1253;60497;-55
2023/11/08 11:04:08;;;;;;;15.50;11.30;;;;;;;8.91;100.00;100200.44;107684;1258;60477;-53
2023/11/08 11:06:39;;;;;;;12.90;10.90;;;;;;;8.92;100.00;100192.50;107806;1258;74150;-52
2023/11/08 11:09:10;;;;;;;14.00;10.20;;;;;;;8.97;100.00;100191.44;105292;1253;65864;-52
2023/11/08 11:11:45;;;;;;;17.90;9.80;;;;;;;9.02;100.00;100182.33;106527;1255;71438;-52
2023/11/08 11:14:37;;;;;;;14.90;11.10;;;;;;;9.06;100.00;100173.21;105427;1257;60647;-52
2023/11/08 11:17:10;;;;;;;14.40;10.70;;;;;;;9.11;100.00;100189.84;105350;1258;60482;-52
2023/11/08 11:19:39;;;;;;;17.40;11.10;;;;;;;9.15;100.00;100195.28;105157;1259;73898;-53
2023/11/08 11:22:09;;;;;;;16.30;11.30;;;;;;;9.21;100.00;100193.28;105387;1258;66889;-53
2023/11/08 11:24:40;;;;;;;15.70;11.90;;;;;;;9.26;100.00;100200.42;105940;1258;72742;-51